Terminal Aerodrome Forecast
Issued by NWS

Home | Current Version | Previous Version | Text Only | Print | Product List | Glossary On
Versions: 1 2 3 4 5 6 7 8 9 10 11 12 13 14 15 16 17 18
000
FTUS43 KLSX 102337
TAFUIN
TAF
KUIN 102337Z 1100/1124 13012KT P6SM OVC050
     FM111100 17010G16KT P6SM OVC035
     FM111200 17010G16KT P6SM VCSH OVC035
     FM111800 19011G18KT 5SM -RA OVC015
     FM112200 22008KT 1 1/2SM -RA OVC008=

USA.gov is the U.S. government's official web portal to all federal, state and local government web resources and services.